GDN weather

Gdańsk Lech Wałęsa Airport
Gdańsk, Pomerania, Poland

Public forecast

Using degrees Celsius for public forecast. Weather courtesy of forecast.io.

Current aviation weather report (METAR) for Gdańsk Lech Wałęsa Airport

Retrieved 2020/06/06 14:00 UTC (25 minutes ago):

EPGD 061400Z 21015KT 180V250 CAVOK 17/05 Q1003

Aviation forecast (TAF) for Gdańsk Lech Wałęsa Airport

Retrieved 2020/06/06 12:33 UTC (2 hours ago):

TAF TAF EPGD 061130Z 0612/0712 23015KT 9999 SCT035 TEMPO 0612/0617 24018G32KT SCT030TCU BECMG 0617/0619 17007KT PROB40 TEMPO 0710/0712 SCT030CB